sensor_id;sensor_type;location;lat;lon;timestamp;pressure;altitude;pressure_sealevel;temperature;humidity
60061;BME280;45933;51.336;12.612;2023-03-31T00:01:28;99036.06;;;11.90;61.04
60061;BME280;45933;51.336;12.612;2023-03-31T00:03:54;99037.09;;;11.85;61.09
60061;BME280;45933;51.336;12.612;2023-03-31T00:06:26;99034.34;;;11.89;60.83
60061;BME280;45933;51.336;12.612;2023-03-31T00:08:52;99030.19;;;11.81;61.12
60061;BME280;45933;51.336;12.612;2023-03-31T00:11:18;99033.69;;;11.83;61.26
60061;BME280;45933;51.336;12.612;2023-03-31T00:13:44;99030.97;;;11.86;60.93
60061;BME280;45933;51.336;12.612;2023-03-31T00:16:09;99030.16;;;11.84;61.51
60061;BME280;45933;51.336;12.612;2023-03-31T00:18:35;99026.59;;;11.86;61.15
60061;BME280;45933;51.336;12.612;2023-03-31T00:23:55;99019.50;;;11.91;60.84
60061;BME280;45933;51.336;12.612;2023-03-31T00:26:20;99012.66;;;11.87;60.69
60061;BME280;45933;51.336;12.612;2023-03-31T00:28:47;99011.94;;;11.82;60.96
60061;BME280;45933;51.336;12.612;2023-03-31T00:31:13;99023.19;;;11.84;60.95
60061;BME280;45933;51.336;12.612;2023-03-31T00:33:38;99008.50;;;11.78;61.02
60061;BME280;45933;51.336;12.612;2023-03-31T00:36:03;99004.97;;;11.83;60.66
60061;BME280;45933;51.336;12.612;2023-03-31T00:38:31;98997.84;;;11.88;60.42
60061;BME280;45933;51.336;12.612;2023-03-31T00:40:57;98993.66;;;11.82;60.67
60061;BME280;45933;51.336;12.612;2023-03-31T00:45:53;98998.88;;;11.81;60.59
60061;BME280;45933;51.336;12.612;2023-03-31T00:48:19;98993.56;;;11.85;60.39
60061;BME280;45933;51.336;12.612;2023-03-31T00:50:53;98997.81;;;11.89;60.51
60061;BME280;45933;51.336;12.612;2023-03-31T00:53:22;98985.97;;;11.76;60.83
60061;BME280;45933;51.336;12.612;2023-03-31T00:55:52;98983.22;;;11.82;60.57
60061;BME280;45933;51.336;12.612;2023-03-31T00:58:19;98977.94;;;11.84;60.38
60061;BME280;45933;51.336;12.612;2023-03-31T01:00:49;98967.53;;;11.81;60.63
60061;BME280;45933;51.336;12.612;2023-03-31T01:03:17;98973.78;;;11.75;60.67
60061;BME280;45933;51.336;12.612;2023-03-31T01:05:49;98974.53;;;11.82;60.52
60061;BME280;45933;51.336;12.612;2023-03-31T01:08:17;98969.41;;;11.75;60.60
60061;BME280;45933;51.336;12.612;2023-03-31T01:10:47;98971.28;;;11.72;60.93
60061;BME280;45933;51.336;12.612;2023-03-31T01:13:15;98968.69;;;11.70;61.05
60061;BME280;45933;51.336;12.612;2023-03-31T01:15:42;98960.78;;;11.73;60.81
60061;BME280;45933;51.336;12.612;2023-03-31T01:18:08;98955.44;;;11.78;60.60
60061;BME280;45933;51.336;12.612;2023-03-31T01:21:04;;;;11.84;
60061;BME280;45933;51.336;12.612;2023-03-31T01:40:25;98914.47;;;11.80;60.71
60061;BME280;45933;51.336;12.612;2023-03-31T01:43:09;98916.13;;;11.84;60.56
60061;BME280;45933;51.336;12.612;2023-03-31T01:48:51;98915.19;;;11.87;60.09
60061;BME280;45933;51.336;12.612;2023-03-31T01:51:28;98896.25;;;11.78;60.20
60061;BME280;45933;51.336;12.612;2023-03-31T01:54:15;98893.94;;;11.68;61.10
60061;BME280;45933;51.336;12.612;2023-03-31T01:56:51;98891.25;;;11.71;60.66
60061;BME280;45933;51.336;12.612;2023-03-31T01:59:32;98895.59;;;11.70;60.46
60061;BME280;45933;51.336;12.612;2023-03-31T02:02:10;98893.94;;;11.68;60.56
60061;BME280;45933;51.336;12.612;2023-03-31T02:04:40;98892.31;;;11.64;60.77
60061;BME280;45933;51.336;12.612;2023-03-31T02:07:22;98885.34;;;11.64;60.74
60061;BME280;45933;51.336;12.612;2023-03-31T02:09:52;98890.69;;;11.60;60.87
60061;BME280;45933;51.336;12.612;2023-03-31T02:12:24;98876.84;;;11.58;61.28
60061;BME280;45933;51.336;12.612;2023-03-31T02:14:54;98879.44;;;11.58;61.06
60061;BME280;45933;51.336;12.612;2023-03-31T02:17:23;98877.81;;;11.55;61.24
60061;BME280;45933;51.336;12.612;2023-03-31T02:19:56;98880.41;;;11.55;60.93
60061;BME280;45933;51.336;12.612;2023-03-31T02:22:22;98866.59;;;11.51;61.22
60061;BME280;45933;51.336;12.612;2023-03-31T02:24:50;98869.19;;;11.51;61.28
60061;BME280;45933;51.336;12.612;2023-03-31T02:27:24;98863.19;;;11.48;61.52
60061;BME280;45933;51.336;12.612;2023-03-31T02:29:51;98863.19;;;11.48;61.40
60061;BME280;45933;51.336;12.612;2023-03-31T02:32:40;98861.19;;;11.58;61.10
60061;BME280;45933;51.336;12.612;2023-03-31T02:35:09;98859.78;;;11.46;61.89
60061;BME280;45933;51.336;12.612;2023-03-31T02:37:36;98850.19;;;11.46;61.62
60061;BME280;45933;51.336;12.612;2023-03-31T02:40:06;98847.53;;;11.49;61.18
60061;BME280;45933;51.336;12.612;2023-03-31T02:42:33;98850.97;;;11.50;61.17
60061;BME280;45933;51.336;12.612;2023-03-31T02:45:36;98840.38;;;11.55;61.17
60061;BME280;45933;51.336;12.612;2023-03-31T02:47:52;98834.50;;;11.48;61.44
60061;BME280;45933;51.336;12.612;2023-03-31T02:50:22;98830.97;;;11.49;61.54
60061;BME280;45933;51.336;12.612;2023-03-31T02:53:14;98817.66;;;11.58;60.93
60061;BME280;45933;51.336;12.612;2023-03-31T02:56:08;98824.78;;;11.53;61.35
60061;BME280;45933;51.336;12.612;2023-03-31T02:59:00;98813.59;;;11.49;61.69
60061;BME280;45933;51.336;12.612;2023-03-31T03:02:04;98816.75;;;11.61;61.35
60061;BME280;45933;51.336;12.612;2023-03-31T03:04:51;98807.34;;;11.55;61.27
60061;BME280;45933;51.336;12.612;2023-03-31T03:12:44;98801.22;;;11.56;61.99
60061;BME280;45933;51.336;12.612;2023-03-31T03:15:19;98799.41;;;11.58;61.49
60061;BME280;45933;51.336;12.612;2023-03-31T03:17:47;98795.94;;;11.58;61.52
60061;BME280;45933;51.336;12.612;2023-03-31T03:20:14;98789.00;;;11.57;61.73
60061;BME280;45933;51.336;12.612;2023-03-31T03:22:40;98790.66;;;11.59;61.51
60061;BME280;45933;51.336;12.612;2023-03-31T03:25:08;98790.63;;;11.61;61.50
60061;BME280;45933;51.336;12.612;2023-03-31T03:27:35;98784.56;;;11.60;61.75
60061;BME280;45933;51.336;12.612;2023-03-31T03:30:01;98783.72;;;11.58;61.68
60061;BME280;45933;51.336;12.612;2023-03-31T03:32:28;98774.91;;;11.62;61.28
60061;BME280;45933;51.336;12.612;2023-03-31T03:34:53;98773.88;;;11.68;61.05
60061;BME280;45933;51.336;12.612;2023-03-31T03:37:18;98773.03;;;11.67;61.46
60061;BME280;45933;51.336;12.612;2023-03-31T03:39:44;98772.25;;;11.64;61.43
60061;BME280;45933;51.336;12.612;2023-03-31T03:42:09;98760.75;;;11.69;61.17
60061;BME280;45933;51.336;12.612;2023-03-31T03:44:35;98758.06;;;11.72;61.11
60061;BME280;45933;51.336;12.612;2023-03-31T03:47:00;98753.69;;;11.73;61.21
60061;BME280;45933;51.336;12.612;2023-03-31T03:49:25;98764.00;;;11.77;60.85
60061;BME280;45933;51.336;12.612;2023-03-31T03:51:51;98757.97;;;11.75;61.24
60061;BME280;45933;51.336;12.612;2023-03-31T03:54:16;98755.53;;;11.71;61.32
60061;BME280;45933;51.336;12.612;2023-03-31T03:56:42;98745.88;;;11.73;61.31
60061;BME280;45933;51.336;12.612;2023-03-31T03:59:07;98750.25;;;11.72;61.28
60061;BME280;45933;51.336;12.612;2023-03-31T04:01:32;98749.34;;;11.73;61.12
60061;BME280;45933;51.336;12.612;2023-03-31T04:03:58;98743.19;;;11.74;61.09
60061;BME280;45933;51.336;12.612;2023-03-31T04:06:23;98738.84;;;11.75;61.08
60061;BME280;45933;51.336;12.612;2023-03-31T04:08:48;98737.06;;;11.75;60.86
60061;BME280;45933;51.336;12.612;2023-03-31T04:11:16;98737.28;;;11.69;61.32
60061;BME280;45933;51.336;12.612;2023-03-31T04:13:43;98723.50;;;11.64;61.50
60061;BME280;45933;51.336;12.612;2023-03-31T04:16:09;98723.56;;;11.63;61.64
60061;BME280;45933;51.336;12.612;2023-03-31T04:18:34;98714.63;;;11.70;61.16
60061;BME280;45933;51.336;12.612;2023-03-31T04:21:02;98713.84;;;11.68;61.44
60061;BME280;45933;51.336;12.612;2023-03-31T04:23:34;98712.03;;;11.70;61.22
60061;BME280;45933;51.336;12.612;2023-03-31T04:26:09;98705.00;;;11.72;61.05
60061;BME280;45933;51.336;12.612;2023-03-31T04:28:36;98701.00;;;11.62;61.63
60061;BME280;45933;51.336;12.612;2023-03-31T04:31:02;98696.53;;;11.65;61.70
60061;BME280;45933;51.336;12.612;2023-03-31T04:33:28;98689.38;;;11.70;61.22
60061;BME280;45933;51.336;12.612;2023-03-31T04:35:53;98682.50;;;11.68;61.59
60061;BME280;45933;51.336;12.612;2023-03-31T04:38:21;98689.50;;;11.67;61.41
60061;BME280;45933;51.336;12.612;2023-03-31T04:40:49;98680.00;;;11.65;61.89
60061;BME280;45933;51.336;12.612;2023-03-31T04:43:15;98677.38;;;11.65;61.98
60061;BME280;45933;51.336;12.612;2023-03-31T04:45:41;98676.59;;;11.63;62.29
60061;BME280;45933;51.336;12.612;2023-03-31T04:48:07;98672.97;;;11.67;62.51
60061;BME280;45933;51.336;12.612;2023-03-31T04:50:33;98661.56;;;11.69;62.30
60061;BME280;45933;51.336;12.612;2023-03-31T04:52:59;98657.41;;;11.64;62.57
60061;BME280;45933;51.336;12.612;2023-03-31T04:55:24;98654.66;;;11.68;62.46
60061;BME280;45933;51.336;12.612;2023-03-31T04:57:50;98659.78;;;11.71;62.12
60061;BME280;45933;51.336;12.612;2023-03-31T05:00:18;98648.59;;;11.68;62.06
60061;BME280;45933;51.336;12.612;2023-03-31T05:02:44;98644.22;;;11.68;62.44
60061;BME280;45933;51.336;12.612;2023-03-31T05:05:10;98636.38;;;11.68;62.09
60061;BME280;45933;51.336;12.612;2023-03-31T05:07:36;98642.41;;;11.70;61.95
60061;BME280;45933;51.336;12.612;2023-03-31T05:10:01;98632.16;;;11.64;62.26
60061;BME280;45933;51.336;12.612;2023-03-31T05:12:27;98631.06;;;11.71;61.72
60061;BME280;45933;51.336;12.612;2023-03-31T05:14:52;98628.59;;;11.67;62.00
60061;BME280;45933;51.336;12.612;2023-03-31T05:17:17;98617.16;;;11.71;62.18
60061;BME280;45933;51.336;12.612;2023-03-31T05:19:43;98611.94;;;11.71;62.00
60061;BME280;45933;51.336;12.612;2023-03-31T05:22:08;98604.31;;;11.65;62.18
60061;BME280;45933;51.336;12.612;2023-03-31T05:24:34;98600.63;;;11.70;62.36
60061;BME280;45933;51.336;12.612;2023-03-31T05:27:00;98592.00;;;11.68;62.46
60061;BME280;45933;51.336;12.612;2023-03-31T05:29:25;98588.63;;;11.65;62.60
60061;BME280;45933;51.336;12.612;2023-03-31T05:31:50;98589.41;;;11.68;62.71
60061;BME280;45933;51.336;12.612;2023-03-31T05:34:18;98575.59;;;11.65;63.16
60061;BME280;45933;51.336;12.612;2023-03-31T05:36:43;98573.69;;;11.70;62.80
60061;BME280;45933;51.336;12.612;2023-03-31T05:39:08;98552.78;;;11.70;63.02
60061;BME280;45933;51.336;12.612;2023-03-31T05:41:34;98560.63;;;11.70;63.24
60061;BME280;45933;51.336;12.612;2023-03-31T05:44:00;98556.94;;;11.75;62.96
60061;BME280;45933;51.336;12.612;2023-03-31T05:46:28;98560.38;;;11.77;62.90
60061;BME280;45933;51.336;12.612;2023-03-31T05:48:54;98562.00;;;11.80;62.60
60061;BME280;45933;51.336;12.612;2023-03-31T05:51:20;98556.00;;;11.78;62.80
60061;BME280;45933;51.336;12.612;2023-03-31T05:53:46;98549.81;;;11.82;62.97
60061;BME280;45933;51.336;12.612;2023-03-31T05:56:11;98561.88;;;11.85;63.27
60061;BME280;45933;51.336;12.612;2023-03-31T05:58:37;98556.66;;;11.85;63.34
60061;BME280;45933;51.336;12.612;2023-03-31T06:01:08;98549.59;;;11.88;62.98
60061;BME280;45933;51.336;12.612;2023-03-31T06:03:36;98554.13;;;11.83;63.44
60061;BME280;45933;51.336;12.612;2023-03-31T06:06:02;98540.78;;;11.91;63.68
60061;BME280;45933;51.336;12.612;2023-03-31T06:08:30;98539.72;;;11.96;62.83
60061;BME280;45933;51.336;12.612;2023-03-31T06:10:56;98532.53;;;12.03;63.47
60061;BME280;45933;51.336;12.612;2023-03-31T06:13:22;98532.63;;;12.00;63.57
60061;BME280;45933;51.336;12.612;2023-03-31T06:15:57;98522.78;;;12.08;63.57
60061;BME280;45933;51.336;12.612;2023-03-31T06:18:25;98524.16;;;11.93;63.92
60061;BME280;45933;51.336;12.612;2023-03-31T06:20:52;98525.47;;;12.05;63.31
60061;BME280;45933;51.336;12.612;2023-03-31T06:23:17;98522.25;;;11.98;63.80
60061;BME280;45933;51.336;12.612;2023-03-31T06:25:43;98516.00;;;12.02;63.85
60061;BME280;45933;51.336;12.612;2023-03-31T06:28:08;98512.44;;;12.05;64.06
60061;BME280;45933;51.336;12.612;2023-03-31T06:30:33;98510.19;;;12.18;63.45
60061;BME280;45933;51.336;12.612;2023-03-31T06:32:59;98512.94;;;12.15;63.67
60061;BME280;45933;51.336;12.612;2023-03-31T06:35:25;98519.81;;;12.17;63.70
60061;BME280;45933;51.336;12.612;2023-03-31T06:37:50;98521.63;;;12.15;63.79
60061;BME280;45933;51.336;12.612;2023-03-31T06:40:15;98527.38;;;12.25;63.12
60061;BME280;45933;51.336;12.612;2023-03-31T06:42:41;98529.22;;;12.21;63.54
60061;BME280;45933;51.336;12.612;2023-03-31T06:45:06;98518.94;;;12.17;63.13
60061;BME280;45933;51.336;12.612;2023-03-31T06:47:32;98520.31;;;12.27;62.98
60061;BME280;45933;51.336;12.612;2023-03-31T06:49:57;98522.25;;;12.22;62.82
60061;BME280;45933;51.336;12.612;2023-03-31T06:52:22;98519.59;;;12.23;63.01
60061;BME280;45933;51.336;12.612;2023-03-31T06:54:48;98507.81;;;12.12;63.23
60061;BME280;45933;51.336;12.612;2023-03-31T06:57:13;98508.41;;;12.20;63.05
60061;BME280;45933;51.336;12.612;2023-03-31T06:59:38;98514.31;;;12.25;62.65
60061;BME280;45933;51.336;12.612;2023-03-31T07:02:03;98497.66;;;12.27;62.56
60061;BME280;45933;51.336;12.612;2023-03-31T07:04:29;98510.38;;;12.37;61.98
60061;BME280;45933;51.336;12.612;2023-03-31T07:06:54;98498.78;;;12.44;62.01
60061;BME280;45933;51.336;12.612;2023-03-31T07:09:21;98488.22;;;12.47;62.14
60061;BME280;45933;51.336;12.612;2023-03-31T07:11:48;98479.94;;;12.57;61.63
60061;BME280;45933;51.336;12.612;2023-03-31T07:14:13;98477.09;;;12.64;61.69
60061;BME280;45933;51.336;12.612;2023-03-31T07:16:38;98468.34;;;12.65;61.74
60061;BME280;45933;51.336;12.612;2023-03-31T07:19:05;98469.56;;;12.78;61.88
60061;BME280;45933;51.336;12.612;2023-03-31T07:21:31;98472.69;;;12.86;61.24
60061;BME280;45933;51.336;12.612;2023-03-31T07:23:56;98458.59;;;12.90;61.00
60061;BME280;45933;51.336;12.612;2023-03-31T07:26:22;98455.81;;;12.95;61.06
60061;BME280;45933;51.336;12.612;2023-03-31T07:28:48;98459.84;;;13.02;60.88
60061;BME280;45933;51.336;12.612;2023-03-31T07:31:13;98459.75;;;13.05;60.47
60061;BME280;45933;51.336;12.612;2023-03-31T07:33:39;98449.59;;;12.97;60.68
60061;BME280;45933;51.336;12.612;2023-03-31T07:36:05;98442.28;;;13.05;60.39
60061;BME280;45933;51.336;12.612;2023-03-31T07:38:31;98441.25;;;13.09;60.14
60061;BME280;45933;51.336;12.612;2023-03-31T07:40:56;98440.22;;;13.14;60.24
60061;BME280;45933;51.336;12.612;2023-03-31T07:43:21;98453.75;;;13.23;59.76
60061;BME280;45933;51.336;12.612;2023-03-31T07:45:47;98447.75;;;13.21;59.79
60061;BME280;45933;51.336;12.612;2023-03-31T07:48:12;98446.63;;;13.27;59.80
60061;BME280;45933;51.336;12.612;2023-03-31T07:50:37;98445.47;;;13.12;59.50
60061;BME280;45933;51.336;12.612;2023-03-31T07:53:03;98451.22;;;13.22;59.72
60061;BME280;45933;51.336;12.612;2023-03-31T07:55:28;98448.22;;;13.31;59.71
60061;BME280;45933;51.336;12.612;2023-03-31T07:57:53;98457.69;;;13.33;59.72
60061;BME280;45933;51.336;12.612;2023-03-31T08:00:19;98460.09;;;13.38;59.47
60061;BME280;45933;51.336;12.612;2023-03-31T08:02:45;98446.63;;;13.47;59.65
60061;BME280;45933;51.336;12.612;2023-03-31T08:05:12;98452.72;;;13.48;59.64
60061;BME280;45933;51.336;12.612;2023-03-31T08:07:39;98461.38;;;13.50;59.17
60061;BME280;45933;51.336;12.612;2023-03-31T08:10:08;98448.31;;;13.69;58.68
60061;BME280;45933;51.336;12.612;2023-03-31T08:12:33;98448.41;;;13.67;58.22
60061;BME280;45933;51.336;12.612;2023-03-31T08:14:59;98444.94;;;13.67;58.00
60061;BME280;45933;51.336;12.612;2023-03-31T08:17:24;98445.94;;;13.83;58.04
60061;BME280;45933;51.336;12.612;2023-03-31T08:19:49;98439.00;;;13.82;57.56
60061;BME280;45933;51.336;12.612;2023-03-31T08:22:16;98436.69;;;13.95;57.45
60061;BME280;45933;51.336;12.612;2023-03-31T08:24:43;98433.94;;;13.98;57.33
60061;BME280;45933;51.336;12.612;2023-03-31T08:27:08;98424.63;;;13.91;56.71
60061;BME280;45933;51.336;12.612;2023-03-31T08:29:34;98415.59;;;13.98;57.22
60061;BME280;45933;51.336;12.612;2023-03-31T08:31:59;98402.13;;;13.86;56.99
60061;BME280;45933;51.336;12.612;2023-03-31T08:34:24;98391.22;;;13.96;57.09
60061;BME280;45933;51.336;12.612;2023-03-31T08:36:51;98388.59;;;13.96;57.23
60061;BME280;45933;51.336;12.612;2023-03-31T08:39:16;98392.78;;;14.00;57.06
60061;BME280;45933;51.336;12.612;2023-03-31T08:42:04;98389.00;;;13.86;56.95
60061;BME280;45933;51.336;12.612;2023-03-31T08:44:38;98392.50;;;14.06;56.86
60061;BME280;45933;51.336;12.612;2023-03-31T08:47:13;98381.94;;;14.07;56.79
60061;BME280;45933;51.336;12.612;2023-03-31T08:49:43;98380.81;;;13.94;56.72
60061;BME280;45933;51.336;12.612;2023-03-31T08:52:13;98374.22;;;13.85;56.77
60061;BME280;45933;51.336;12.612;2023-03-31T08:54:45;98367.59;;;13.78;56.86
60061;BME280;45933;51.336;12.612;2023-03-31T08:57:46;98374.25;;;14.04;56.99
60061;BME280;45933;51.336;12.612;2023-03-31T09:00:17;98377.44;;;13.92;57.22
60061;BME280;45933;51.336;12.612;2023-03-31T09:02:54;98376.94;;;14.03;57.71
60061;BME280;45933;51.336;12.612;2023-03-31T09:10:52;98366.66;;;13.79;59.36
60061;BME280;45933;51.336;12.612;2023-03-31T09:16:32;98360.91;;;13.52;60.95
60061;BME280;45933;51.336;12.612;2023-03-31T09:19:00;98367.44;;;13.63;61.42
60061;BME280;45933;51.336;12.612;2023-03-31T09:21:28;98367.19;;;13.48;61.41
60061;BME280;45933;51.336;12.612;2023-03-31T09:24:14;98347.41;;;13.62;61.10
60061;BME280;45933;51.336;12.612;2023-03-31T09:26:45;98357.88;;;13.62;61.69
60061;BME280;45933;51.336;12.612;2023-03-31T09:29:19;98350.03;;;13.62;61.45
60061;BME280;45933;51.336;12.612;2023-03-31T09:31:45;98347.94;;;13.49;61.94
60061;BME280;45933;51.336;12.612;2023-03-31T09:34:31;98336.09;;;13.61;61.67
60061;BME280;45933;51.336;12.612;2023-03-31T09:36:57;98339.19;;;13.50;61.97
60061;BME280;45933;51.336;12.612;2023-03-31T09:39:23;98331.34;;;13.50;62.15
60061;BME280;45933;51.336;12.612;2023-03-31T09:41:49;98322.56;;;13.51;62.20
60061;BME280;45933;51.336;12.612;2023-03-31T09:44:25;98334.16;;;13.46;62.40
60061;BME280;45933;51.336;12.612;2023-03-31T09:46:52;98320.78;;;13.52;62.04
60061;BME280;45933;51.336;12.612;2023-03-31T09:49:20;98321.72;;;13.51;62.76
60061;BME280;45933;51.336;12.612;2023-03-31T09:51:51;98322.78;;;13.47;63.24
60061;BME280;45933;51.336;12.612;2023-03-31T09:54:29;98307.84;;;13.49;62.56
60061;BME280;45933;51.336;12.612;2023-03-31T09:56:58;98299.41;;;13.42;63.67
60061;BME280;45933;51.336;12.612;2023-03-31T09:59:32;98295.09;;;13.41;63.46
60061;BME280;45933;51.336;12.612;2023-03-31T10:02:01;98297.50;;;13.27;63.84
60061;BME280;45933;51.336;12.612;2023-03-31T10:04:30;98284.13;;;13.33;63.46
60061;BME280;45933;51.336;12.612;2023-03-31T10:06:58;98286.69;;;13.34;63.68
60061;BME280;45933;51.336;12.612;2023-03-31T10:09:26;98291.50;;;13.25;64.05
60061;BME280;45933;51.336;12.612;2023-03-31T10:11:55;98277.56;;;13.24;64.26
60061;BME280;45933;51.336;12.612;2023-03-31T10:14:37;98280.03;;;13.27;63.53
60061;BME280;45933;51.336;12.612;2023-03-31T10:17:04;98273.66;;;13.33;63.52
60061;BME280;45933;51.336;12.612;2023-03-31T10:19:34;98282.16;;;13.38;63.32
60061;BME280;45933;51.336;12.612;2023-03-31T10:24:36;98273.31;;;13.41;62.97
60061;BME280;45933;51.336;12.612;2023-03-31T10:27:04;98261.06;;;13.22;63.94
60061;BME280;45933;51.336;12.612;2023-03-31T10:29:32;98262.84;;;13.22;63.98
60061;BME280;45933;51.336;12.612;2023-03-31T10:32:13;98257.66;;;13.20;63.91
60061;BME280;45933;51.336;12.612;2023-03-31T10:34:42;98263.94;;;13.16;63.61
60061;BME280;45933;51.336;12.612;2023-03-31T10:37:14;98255.34;;;13.13;64.09
60061;BME280;45933;51.336;12.612;2023-03-31T10:39:42;98247.00;;;13.25;63.92
60061;BME280;45933;51.336;12.612;2023-03-31T10:42:07;98247.19;;;13.20;64.00
60061;BME280;45933;51.336;12.612;2023-03-31T10:44:38;98244.44;;;13.23;63.20
60061;BME280;45933;51.336;12.612;2023-03-31T10:47:08;98237.19;;;13.09;64.17
60061;BME280;45933;51.336;12.612;2023-03-31T10:49:42;98233.38;;;13.17;63.16
60061;BME280;45933;51.336;12.612;2023-03-31T10:52:21;98226.34;;;13.19;63.65
60061;BME280;45933;51.336;12.612;2023-03-31T10:54:58;98218.91;;;13.09;64.24
60061;BME280;45933;51.336;12.612;2023-03-31T11:00:17;98210.59;;;13.00;64.63
60061;BME280;45933;51.336;12.612;2023-03-31T11:03:00;98203.47;;;13.03;64.43
60061;BME280;45933;51.336;12.612;2023-03-31T11:05:38;98194.63;;;12.87;65.73
60061;BME280;45933;51.336;12.612;2023-03-31T11:08:20;98194.19;;;12.96;65.04
60061;BME280;45933;51.336;12.612;2023-03-31T11:11:03;98190.16;;;12.89;65.67
60061;BME280;45933;51.336;12.612;2023-03-31T11:13:49;98189.88;;;12.95;65.35
60061;BME280;45933;51.336;12.612;2023-03-31T11:16:27;98183.31;;;12.87;65.66
60061;BME280;45933;51.336;12.612;2023-03-31T11:19:07;98170.47;;;12.82;66.23
60061;BME280;45933;51.336;12.612;2023-03-31T11:22:04;98170.94;;;12.90;65.57
60061;BME280;45933;51.336;12.612;2023-03-31T11:24:53;98180.00;;;12.83;66.17
60061;BME280;45933;51.336;12.612;2023-03-31T11:27:49;98170.00;;;12.72;66.46
60061;BME280;45933;51.336;12.612;2023-03-31T11:30:35;98169.44;;;12.66;66.66
60061;BME280;45933;51.336;12.612;2023-03-31T11:36:10;98168.31;;;12.71;66.58
60061;BME280;45933;51.336;12.612;2023-03-31T11:38:57;98172.72;;;12.71;66.09
60061;BME280;45933;51.336;12.612;2023-03-31T11:41:34;98163.56;;;12.61;66.42
60061;BME280;45933;51.336;12.612;2023-03-31T11:44:03;98169.00;;;12.56;66.84
60061;BME280;45933;51.336;12.612;2023-03-31T11:46:43;98160.09;;;12.60;66.32
60061;BME280;45933;51.336;12.612;2023-03-31T11:49:28;98159.03;;;12.64;66.37
60061;BME280;45933;51.336;12.612;2023-03-31T11:51:58;98150.63;;;12.57;66.59
60061;BME280;45933;51.336;12.612;2023-03-31T11:54:39;98150.06;;;12.51;66.93
60061;BME280;45933;51.336;12.612;2023-03-31T11:57:13;98146.53;;;12.52;66.94
60061;BME280;45933;51.336;12.612;2023-03-31T11:59:42;98155.88;;;12.37;66.94
60061;BME280;45933;51.336;12.612;2023-03-31T12:02:15;98153.16;;;12.40;67.01
60061;BME280;45933;51.336;12.612;2023-03-31T12:04:43;98145.88;;;12.26;67.18
60061;BME280;45933;51.336;12.612;2023-03-31T12:07:30;98144.47;;;12.19;67.95
60061;BME280;45933;51.336;12.612;2023-03-31T12:10:03;98131.13;;;12.25;67.64
60061;BME280;45933;51.336;12.612;2023-03-31T12:12:34;98137.09;;;12.29;66.81
60061;BME280;45933;51.336;12.612;2023-03-31T12:17:35;98122.84;;;12.16;66.78
60061;BME280;45933;51.336;12.612;2023-03-31T12:20:11;98126.22;;;12.18;66.75
60061;BME280;45933;51.336;12.612;2023-03-31T12:22:43;98131.44;;;12.18;67.10
60061;BME280;45933;51.336;12.612;2023-03-31T12:25:13;98126.31;;;12.16;66.87
60061;BME280;45933;51.336;12.612;2023-03-31T12:27:41;98115.47;;;12.05;67.65
60061;BME280;45933;51.336;12.612;2023-03-31T12:30:13;98115.16;;;12.13;66.92
60061;BME280;45933;51.336;12.612;2023-03-31T12:32:45;98104.63;;;12.14;67.70
60061;BME280;45933;51.336;12.612;2023-03-31T12:35:20;98100.13;;;12.18;67.78
60061;BME280;45933;51.336;12.612;2023-03-31T12:41:27;98088.34;;;12.28;67.18
60061;BME280;45933;51.336;12.612;2023-03-31T12:44:13;98085.50;;;12.34;66.78
60061;BME280;45933;51.336;12.612;2023-03-31T12:46:51;98072.34;;;12.36;67.18
60061;BME280;45933;51.336;12.612;2023-03-31T12:52:24;98066.72;;;12.45;66.15
60061;BME280;45933;51.336;12.612;2023-03-31T12:57:46;98070.88;;;12.49;67.18
60061;BME280;45933;51.336;12.612;2023-03-31T13:00:26;98066.16;;;12.57;66.63
60061;BME280;45933;51.336;12.612;2023-03-31T13:09:02;98056.31;;;12.81;66.54
60061;BME280;45933;51.336;12.612;2023-03-31T13:14:00;98054.06;;;12.92;66.43
60061;BME280;45933;51.336;12.612;2023-03-31T13:16:27;98054.53;;;13.00;66.86
60061;BME280;45933;51.336;12.612;2023-03-31T13:18:53;98048.94;;;13.08;67.57
60061;BME280;45933;51.336;12.612;2023-03-31T13:21:20;98045.09;;;13.15;65.92
60061;BME280;45933;51.336;12.612;2023-03-31T13:23:46;98042.94;;;13.25;66.51
60061;BME280;45933;51.336;12.612;2023-03-31T13:26:34;98044.72;;;13.42;66.52
60061;BME280;45933;51.336;12.612;2023-03-31T13:34:28;98046.16;;;13.65;65.12
60061;BME280;45933;51.336;12.612;2023-03-31T13:37:10;98050.72;;;13.78;64.90
60061;BME280;45933;51.336;12.612;2023-03-31T13:42:58;98039.56;;;13.92;63.22
60061;BME280;45933;51.336;12.612;2023-03-31T13:48:19;98045.09;;;14.03;62.55
60061;BME280;45933;51.336;12.612;2023-03-31T13:53:42;98046.25;;;14.31;62.31
60061;BME280;45933;51.336;12.612;2023-03-31T13:59:14;98031.78;;;14.57;62.56
60061;BME280;45933;51.336;12.612;2023-03-31T14:02:01;98033.97;;;14.64;61.08
60061;BME280;45933;51.336;12.612;2023-03-31T14:04:59;98030.69;;;14.77;59.78
60061;BME280;45933;51.336;12.612;2023-03-31T14:07:39;98027.88;;;14.80;59.53
60061;BME280;45933;51.336;12.612;2023-03-31T14:10:32;98018.75;;;14.87;58.65
60061;BME280;45933;51.336;12.612;2023-03-31T14:13:12;98013.22;;;14.91;58.58
60061;BME280;45933;51.336;12.612;2023-03-31T14:15:48;98007.72;;;14.96;58.63
60061;BME280;45933;51.336;12.612;2023-03-31T14:18:35;98011.97;;;14.99;57.98
60061;BME280;45933;51.336;12.612;2023-03-31T14:21:22;98009.16;;;15.02;56.76
60061;BME280;45933;51.336;12.612;2023-03-31T14:26:53;97990.41;;;15.24;57.25
60061;BME280;45933;51.336;12.612;2023-03-31T14:29:30;97991.28;;;15.24;57.50
60061;BME280;45933;51.336;12.612;2023-03-31T14:32:12;97988.94;;;15.20;57.32
60061;BME280;45933;51.336;12.612;2023-03-31T14:34:51;97979.16;;;15.22;56.86
60061;BME280;45933;51.336;12.612;2023-03-31T14:37:18;97981.22;;;15.16;56.84